sensor_id;sensor_type;location;lat;lon;timestamp;P1;durP1;ratioP1;P2;durP2;ratioP2
19800;SDS011;10060;48.274;12.214;2023-04-24T00:00:15;3.33;;;2.37;;
19800;SDS011;10060;48.274;12.214;2023-04-24T00:03:17;2.70;;;2.20;;
19800;SDS011;10060;48.274;12.214;2023-04-24T00:06:21;2.60;;;2.23;;
19800;SDS011;10060;48.274;12.214;2023-04-24T00:09:25;2.03;;;1.83;;
19800;SDS011;10060;48.274;12.214;2023-04-24T00:12:27;2.93;;;2.30;;
19800;SDS011;10060;48.274;12.214;2023-04-24T00:15:29;2.70;;;1.87;;
19800;SDS011;10060;48.274;12.214;2023-04-24T00:18:32;4.17;;;1.80;;
19800;SDS011;10060;48.274;12.214;2023-04-24T00:21:34;2.67;;;2.03;;
19800;SDS011;10060;48.274;12.214;2023-04-24T00:24:37;4.53;;;2.43;;
19800;SDS011;10060;48.274;12.214;2023-04-24T00:27:39;5.60;;;2.43;;
19800;SDS011;10060;48.274;12.214;2023-04-24T00:30:42;3.23;;;2.47;;
19800;SDS011;10060;48.274;12.214;2023-04-24T00:33:44;2.60;;;2.40;;
19800;SDS011;10060;48.274;12.214;2023-04-24T00:36:46;3.47;;;2.10;;
19800;SDS011;10060;48.274;12.214;2023-04-24T00:39:51;3.57;;;2.17;;
19800;SDS011;10060;48.274;12.214;2023-04-24T00:42:53;4.43;;;2.33;;
19800;SDS011;10060;48.274;12.214;2023-04-24T00:45:56;2.67;;;2.27;;
19800;SDS011;10060;48.274;12.214;2023-04-24T00:48:59;4.63;;;2.50;;
19800;SDS011;10060;48.274;12.214;2023-04-24T00:52:01;3.30;;;2.30;;
19800;SDS011;10060;48.274;12.214;2023-04-24T00:55:09;5.30;;;2.47;;
19800;SDS011;10060;48.274;12.214;2023-04-24T00:58:11;3.97;;;2.10;;
19800;SDS011;10060;48.274;12.214;2023-04-24T01:01:13;3.23;;;2.40;;
19800;SDS011;10060;48.274;12.214;2023-04-24T01:04:15;3.10;;;2.10;;
19800;SDS011;10060;48.274;12.214;2023-04-24T01:07:19;2.50;;;2.00;;
19800;SDS011;10060;48.274;12.214;2023-04-24T01:10:22;2.37;;;2.10;;
19800;SDS011;10060;48.274;12.214;2023-04-24T01:13:25;3.30;;;2.10;;
19800;SDS011;10060;48.274;12.214;2023-04-24T01:16:27;2.67;;;2.17;;
19800;SDS011;10060;48.274;12.214;2023-04-24T01:19:30;2.97;;;2.23;;
19800;SDS011;10060;48.274;12.214;2023-04-24T01:22:34;2.87;;;2.13;;
19800;SDS011;10060;48.274;12.214;2023-04-24T01:25:36;2.33;;;1.77;;
19800;SDS011;10060;48.274;12.214;2023-04-24T01:28:39;2.63;;;1.80;;
19800;SDS011;10060;48.274;12.214;2023-04-24T01:31:41;2.83;;;2.00;;
19800;SDS011;10060;48.274;12.214;2023-04-24T01:34:43;3.43;;;1.93;;
19800;SDS011;10060;48.274;12.214;2023-04-24T01:37:47;1.70;;;1.60;;
19800;SDS011;10060;48.274;12.214;2023-04-24T01:40:49;3.57;;;1.80;;
19800;SDS011;10060;48.274;12.214;2023-04-24T01:43:51;2.03;;;1.60;;
19800;SDS011;10060;48.274;12.214;2023-04-24T01:46:54;3.27;;;2.00;;
19800;SDS011;10060;48.274;12.214;2023-04-24T01:49:56;2.20;;;1.70;;
19800;SDS011;10060;48.274;12.214;2023-04-24T01:53:00;3.20;;;1.87;;
19800;SDS011;10060;48.274;12.214;2023-04-24T01:56:02;3.73;;;1.77;;
19800;SDS011;10060;48.274;12.214;2023-04-24T01:59:04;1.70;;;1.60;;
19800;SDS011;10060;48.274;12.214;2023-04-24T02:02:07;2.03;;;1.80;;
19800;SDS011;10060;48.274;12.214;2023-04-24T02:05:09;1.50;;;1.40;;
19800;SDS011;10060;48.274;12.214;2023-04-24T02:08:13;2.10;;;1.90;;
19800;SDS011;10060;48.274;12.214;2023-04-24T02:11:15;4.03;;;1.60;;
19800;SDS011;10060;48.274;12.214;2023-04-24T02:14:17;1.70;;;1.50;;
19800;SDS011;10060;48.274;12.214;2023-04-24T02:17:19;1.60;;;1.50;;
19800;SDS011;10060;48.274;12.214;2023-04-24T02:20:21;1.93;;;1.43;;
19800;SDS011;10060;48.274;12.214;2023-04-24T02:23:25;2.77;;;1.50;;
19800;SDS011;10060;48.274;12.214;2023-04-24T02:26:27;1.47;;;1.37;;
19800;SDS011;10060;48.274;12.214;2023-04-24T02:29:31;3.17;;;1.50;;
19800;SDS011;10060;48.274;12.214;2023-04-24T02:32:33;1.97;;;1.83;;
19800;SDS011;10060;48.274;12.214;2023-04-24T02:35:35;1.50;;;1.40;;
19800;SDS011;10060;48.274;12.214;2023-04-24T02:38:39;1.97;;;1.40;;
19800;SDS011;10060;48.274;12.214;2023-04-24T02:41:41;1.30;;;1.20;;
19800;SDS011;10060;48.274;12.214;2023-04-24T02:44:43;1.50;;;1.40;;
19800;SDS011;10060;48.274;12.214;2023-04-24T02:47:45;1.50;;;1.30;;
19800;SDS011;10060;48.274;12.214;2023-04-24T02:50:47;1.40;;;1.30;;
19800;SDS011;10060;48.274;12.214;2023-04-24T02:53:51;1.37;;;1.27;;
19800;SDS011;10060;48.274;12.214;2023-04-24T02:56:54;1.87;;;1.57;;
19800;SDS011;10060;48.274;12.214;2023-04-24T02:59:56;1.23;;;1.10;;
19800;SDS011;10060;48.274;12.214;2023-04-24T03:02:58;1.57;;;1.47;;
19800;SDS011;10060;48.274;12.214;2023-04-24T03:06:01;1.63;;;1.40;;
19800;SDS011;10060;48.274;12.214;2023-04-24T03:09:07;1.30;;;1.20;;
19800;SDS011;10060;48.274;12.214;2023-04-24T03:12:09;1.50;;;1.20;;
19800;SDS011;10060;48.274;12.214;2023-04-24T03:15:11;2.50;;;1.30;;
19800;SDS011;10060;48.274;12.214;2023-04-24T03:18:13;1.50;;;1.30;;
19800;SDS011;10060;48.274;12.214;2023-04-24T03:21:15;1.40;;;1.30;;
19800;SDS011;10060;48.274;12.214;2023-04-24T03:24:19;1.37;;;1.27;;
19800;SDS011;10060;48.274;12.214;2023-04-24T03:27:21;1.47;;;1.37;;
19800;SDS011;10060;48.274;12.214;2023-04-24T03:30:23;1.30;;;1.20;;
19800;SDS011;10060;48.274;12.214;2023-04-24T03:33:25;2.27;;;1.20;;
19800;SDS011;10060;48.274;12.214;2023-04-24T03:36:27;1.17;;;1.10;;
19800;SDS011;10060;48.274;12.214;2023-04-24T03:39:31;1.53;;;1.20;;
19800;SDS011;10060;48.274;12.214;2023-04-24T03:42:34;1.97;;;1.40;;
19800;SDS011;10060;48.274;12.214;2023-04-24T03:45:36;2.67;;;1.13;;
19800;SDS011;10060;48.274;12.214;2023-04-24T03:48:38;2.07;;;1.10;;
19800;SDS011;10060;48.274;12.214;2023-04-24T03:51:40;1.17;;;1.10;;
19800;SDS011;10060;48.274;12.214;2023-04-24T03:54:44;1.33;;;1.10;;
19800;SDS011;10060;48.274;12.214;2023-04-24T03:57:46;1.50;;;1.40;;
19800;SDS011;10060;48.274;12.214;2023-04-24T04:00:48;1.30;;;1.20;;
19800;SDS011;10060;48.274;12.214;2023-04-24T04:03:51;1.47;;;1.20;;
19800;SDS011;10060;48.274;12.214;2023-04-24T04:06:53;1.50;;;1.37;;
19800;SDS011;10060;48.274;12.214;2023-04-24T04:09:56;1.00;;;1.00;;
19800;SDS011;10060;48.274;12.214;2023-04-24T04:12:59;1.97;;;1.10;;
19800;SDS011;10060;48.274;12.214;2023-04-24T04:16:01;1.47;;;1.10;;
19800;SDS011;10060;48.274;12.214;2023-04-24T04:19:03;1.63;;;1.47;;
19800;SDS011;10060;48.274;12.214;2023-04-24T04:22:05;1.47;;;1.10;;
19800;SDS011;10060;48.274;12.214;2023-04-24T04:25:09;2.03;;;1.50;;
19800;SDS011;10060;48.274;12.214;2023-04-24T04:28:13;4.20;;;1.50;;
19800;SDS011;10060;48.274;12.214;2023-04-24T04:31:15;1.20;;;1.20;;
19800;SDS011;10060;48.274;12.214;2023-04-24T04:34:17;2.20;;;1.23;;
19800;SDS011;10060;48.274;12.214;2023-04-24T04:37:19;1.40;;;1.30;;
19800;SDS011;10060;48.274;12.214;2023-04-24T04:40:23;2.40;;;1.20;;
19800;SDS011;10060;48.274;12.214;2023-04-24T04:43:26;1.20;;;1.20;;
19800;SDS011;10060;48.274;12.214;2023-04-24T04:46:28;2.20;;;1.40;;
19800;SDS011;10060;48.274;12.214;2023-04-24T04:49:32;1.43;;;1.23;;
19800;SDS011;10060;48.274;12.214;2023-04-24T04:52:34;1.73;;;1.30;;
19800;SDS011;10060;48.274;12.214;2023-04-24T04:55:38;1.43;;;1.33;;
19800;SDS011;10060;48.274;12.214;2023-04-24T04:58:40;2.33;;;1.30;;
19800;SDS011;10060;48.274;12.214;2023-04-24T05:01:42;1.13;;;1.13;;
19800;SDS011;10060;48.274;12.214;2023-04-24T05:04:44;2.23;;;1.43;;
19800;SDS011;10060;48.274;12.214;2023-04-24T05:07:46;2.13;;;1.30;;
19800;SDS011;10060;48.274;12.214;2023-04-24T05:10:50;2.27;;;1.40;;
19800;SDS011;10060;48.274;12.214;2023-04-24T05:13:52;3.00;;;1.60;;
19800;SDS011;10060;48.274;12.214;2023-04-24T05:16:54;2.67;;;1.53;;
19800;SDS011;10060;48.274;12.214;2023-04-24T05:19:56;1.53;;;1.43;;
19800;SDS011;10060;48.274;12.214;2023-04-24T05:22:58;2.90;;;1.37;;
19800;SDS011;10060;48.274;12.214;2023-04-24T05:26:02;1.10;;;1.10;;
19800;SDS011;10060;48.274;12.214;2023-04-24T05:29:04;1.47;;;1.20;;
19800;SDS011;10060;48.274;12.214;2023-04-24T05:32:06;1.87;;;1.40;;
19800;SDS011;10060;48.274;12.214;2023-04-24T05:35:08;1.40;;;1.30;;
19800;SDS011;10060;48.274;12.214;2023-04-24T05:38:10;2.73;;;1.20;;
19800;SDS011;10060;48.274;12.214;2023-04-24T05:41:14;1.23;;;1.10;;
19800;SDS011;10060;48.274;12.214;2023-04-24T05:44:16;1.30;;;1.20;;
19800;SDS011;10060;48.274;12.214;2023-04-24T05:47:18;1.83;;;1.30;;
19800;SDS011;10060;48.274;12.214;2023-04-24T05:50:21;1.50;;;1.40;;
19800;SDS011;10060;48.274;12.214;2023-04-24T05:53:24;1.97;;;1.70;;
19800;SDS011;10060;48.274;12.214;2023-04-24T05:56:27;1.10;;;1.10;;
19800;SDS011;10060;48.274;12.214;2023-04-24T05:59:29;1.10;;;1.10;;
19800;SDS011;10060;48.274;12.214;2023-04-24T06:02:31;1.27;;;1.20;;
19800;SDS011;10060;48.274;12.214;2023-04-24T06:05:34;1.37;;;1.27;;
19800;SDS011;10060;48.274;12.214;2023-04-24T06:08:36;1.20;;;1.10;;
19800;SDS011;10060;48.274;12.214;2023-04-24T06:11:39;1.17;;;1.07;;
19800;SDS011;10060;48.274;12.214;2023-04-24T06:14:42;1.40;;;1.30;;
19800;SDS011;10060;48.274;12.214;2023-04-24T06:17:44;2.37;;;1.30;;
19800;SDS011;10060;48.274;12.214;2023-04-24T06:20:46;1.30;;;1.20;;
19800;SDS011;10060;48.274;12.214;2023-04-24T06:23:49;1.17;;;1.10;;
19800;SDS011;10060;48.274;12.214;2023-04-24T06:26:53;1.13;;;1.10;;
19800;SDS011;10060;48.274;12.214;2023-04-24T06:29:56;1.13;;;1.10;;
19800;SDS011;10060;48.274;12.214;2023-04-24T06:32:58;1.30;;;1.20;;
19800;SDS011;10060;48.274;12.214;2023-04-24T06:36:00;3.03;;;1.20;;
19800;SDS011;10060;48.274;12.214;2023-04-24T06:39:04;1.20;;;1.10;;
19800;SDS011;10060;48.274;12.214;2023-04-24T06:42:08;1.40;;;1.30;;
19800;SDS011;10060;48.274;12.214;2023-04-24T06:45:10;1.00;;;1.00;;
19800;SDS011;10060;48.274;12.214;2023-04-24T06:48:12;1.10;;;1.10;;
19800;SDS011;10060;48.274;12.214;2023-04-24T06:51:15;1.50;;;1.40;;
19800;SDS011;10060;48.274;12.214;2023-04-24T06:54:18;2.07;;;1.87;;
19800;SDS011;10060;48.274;12.214;2023-04-24T06:57:21;2.00;;;1.57;;
19800;SDS011;10060;48.274;12.214;2023-04-24T07:00:24;1.60;;;1.10;;
19800;SDS011;10060;48.274;12.214;2023-04-24T07:03:26;2.73;;;0.90;;
19800;SDS011;10060;48.274;12.214;2023-04-24T07:06:28;1.30;;;1.20;;
19800;SDS011;10060;48.274;12.214;2023-04-24T07:09:30;1.70;;;1.00;;
19800;SDS011;10060;48.274;12.214;2023-04-24T07:12:34;1.97;;;1.30;;
19800;SDS011;10060;48.274;12.214;2023-04-24T07:15:37;1.33;;;1.10;;
19800;SDS011;10060;48.274;12.214;2023-04-24T07:18:40;2.03;;;1.10;;
19800;SDS011;10060;48.274;12.214;2023-04-24T07:21:43;2.00;;;1.03;;
19800;SDS011;10060;48.274;12.214;2023-04-24T07:24:45;1.00;;;1.00;;
19800;SDS011;10060;48.274;12.214;2023-04-24T07:27:48;1.37;;;1.10;;
19800;SDS011;10060;48.274;12.214;2023-04-24T07:30:50;1.00;;;1.00;;
19800;SDS011;10060;48.274;12.214;2023-04-24T07:33:53;1.00;;;1.00;;
19800;SDS011;10060;48.274;12.214;2023-04-24T07:36:57;1.60;;;0.97;;
19800;SDS011;10060;48.274;12.214;2023-04-24T07:40:00;1.20;;;1.10;;
19800;SDS011;10060;48.274;12.214;2023-04-24T07:43:04;1.23;;;1.13;;
19800;SDS011;10060;48.274;12.214;2023-04-24T07:46:06;1.93;;;1.20;;
19800;SDS011;10060;48.274;12.214;2023-04-24T07:49:08;1.00;;;1.00;;
19800;SDS011;10060;48.274;12.214;2023-04-24T07:52:10;1.20;;;1.10;;
19800;SDS011;10060;48.274;12.214;2023-04-24T07:55:12;1.30;;;1.20;;
19800;SDS011;10060;48.274;12.214;2023-04-24T07:58:16;1.57;;;1.03;;
19800;SDS011;10060;48.274;12.214;2023-04-24T08:01:18;1.00;;;1.00;;
19800;SDS011;10060;48.274;12.214;2023-04-24T08:04:20;1.50;;;1.00;;
19800;SDS011;10060;48.274;12.214;2023-04-24T08:07:22;1.67;;;1.10;;
19800;SDS011;10060;48.274;12.214;2023-04-24T08:10:25;2.83;;;1.13;;
19800;SDS011;10060;48.274;12.214;2023-04-24T08:13:28;1.50;;;1.30;;
19800;SDS011;10060;48.274;12.214;2023-04-24T08:16:31;1.07;;;1.07;;
19800;SDS011;10060;48.274;12.214;2023-04-24T08:19:34;2.60;;;1.07;;
19800;SDS011;10060;48.274;12.214;2023-04-24T08:22:36;1.03;;;0.90;;
19800;SDS011;10060;48.274;12.214;2023-04-24T08:25:38;0.90;;;0.90;;
19800;SDS011;10060;48.274;12.214;2023-04-24T08:28:41;1.20;;;1.10;;
19800;SDS011;10060;48.274;12.214;2023-04-24T08:31:44;1.20;;;1.10;;
19800;SDS011;10060;48.274;12.214;2023-04-24T08:34:46;2.03;;;1.00;;
19800;SDS011;10060;48.274;12.214;2023-04-24T08:37:48;0.90;;;0.90;;
19800;SDS011;10060;48.274;12.214;2023-04-24T08:40:50;1.30;;;1.20;;
19800;SDS011;10060;48.274;12.214;2023-04-24T08:43:53;2.23;;;1.10;;
19800;SDS011;10060;48.274;12.214;2023-04-24T08:46:58;1.43;;;1.00;;
19800;SDS011;10060;48.274;12.214;2023-04-24T08:50:00;1.77;;;1.07;;
19800;SDS011;10060;48.274;12.214;2023-04-24T08:53:02;3.50;;;1.00;;
19800;SDS011;10060;48.274;12.214;2023-04-24T08:56:05;4.63;;;1.00;;
19800;SDS011;10060;48.274;12.214;2023-04-24T08:59:09;1.57;;;1.20;;
19800;SDS011;10060;48.274;12.214;2023-04-24T09:02:12;2.63;;;1.13;;
19800;SDS011;10060;48.274;12.214;2023-04-24T09:05:16;4.10;;;1.03;;
19800;SDS011;10060;48.274;12.214;2023-04-24T09:08:18;1.00;;;1.00;;
19800;SDS011;10060;48.274;12.214;2023-04-24T09:11:21;2.73;;;1.17;;
19800;SDS011;10060;48.274;12.214;2023-04-24T09:14:25;1.20;;;1.03;;
19800;SDS011;10060;48.274;12.214;2023-04-24T09:17:28;1.57;;;0.83;;
19800;SDS011;10060;48.274;12.214;2023-04-24T09:20:30;1.00;;;1.00;;
19800;SDS011;10060;48.274;12.214;2023-04-24T09:23:32;1.13;;;1.13;;
19800;SDS011;10060;48.274;12.214;2023-04-24T09:26:35;0.90;;;0.90;;
19800;SDS011;10060;48.274;12.214;2023-04-24T09:29:39;1.17;;;1.03;;
19800;SDS011;10060;48.274;12.214;2023-04-24T09:32:41;1.50;;;1.40;;
19800;SDS011;10060;48.274;12.214;2023-04-24T09:35:48;0.97;;;0.97;;
19800;SDS011;10060;48.274;12.214;2023-04-24T09:38:50;1.27;;;1.17;;
19800;SDS011;10060;48.274;12.214;2023-04-24T09:41:56;2.37;;;1.90;;
19800;SDS011;10060;48.274;12.214;2023-04-24T09:45:00;1.50;;;1.40;;
19800;SDS011;10060;48.274;12.214;2023-04-24T09:48:02;1.30;;;1.20;;
19800;SDS011;10060;48.274;12.214;2023-04-24T09:51:05;1.57;;;1.47;;
19800;SDS011;10060;48.274;12.214;2023-04-24T09:54:14;1.33;;;1.27;;
19800;SDS011;10060;48.274;12.214;2023-04-24T09:57:17;3.67;;;1.50;;
19800;SDS011;10060;48.274;12.214;2023-04-24T10:00:22;2.00;;;1.67;;
19800;SDS011;10060;48.274;12.214;2023-04-24T10:03:25;1.50;;;1.40;;
19800;SDS011;10060;48.274;12.214;2023-04-24T10:06:34;2.00;;;1.80;;
19800;SDS011;10060;48.274;12.214;2023-04-24T10:09:36;1.70;;;1.60;;
19800;SDS011;10060;48.274;12.214;2023-04-24T10:12:38;1.97;;;1.87;;
19800;SDS011;10060;48.274;12.214;2023-04-24T10:15:42;2.10;;;1.90;;
19800;SDS011;10060;48.274;12.214;2023-04-24T10:18:44;2.00;;;1.77;;
19800;SDS011;10060;48.274;12.214;2023-04-24T10:21:47;2.03;;;1.77;;
19800;SDS011;10060;48.274;12.214;2023-04-24T10:24:49;2.00;;;1.80;;
19800;SDS011;10060;48.274;12.214;2023-04-24T10:27:52;2.07;;;1.90;;
19800;SDS011;10060;48.274;12.214;2023-04-24T10:30:58;1.87;;;1.77;;
19800;SDS011;10060;48.274;12.214;2023-04-24T10:34:01;1.93;;;1.80;;
19800;SDS011;10060;48.274;12.214;2023-04-24T10:37:03;2.23;;;1.93;;
19800;SDS011;10060;48.274;12.214;2023-04-24T10:40:06;1.60;;;1.50;;
19800;SDS011;10060;48.274;12.214;2023-04-24T10:43:08;2.17;;;1.97;;
19800;SDS011;10060;48.274;12.214;2023-04-24T10:46:16;2.63;;;1.53;;
19800;SDS011;10060;48.274;12.214;2023-04-24T10:49:19;2.10;;;1.90;;
19800;SDS011;10060;48.274;12.214;2023-04-24T10:52:43;1.60;;;1.50;;
19800;SDS011;10060;48.274;12.214;2023-04-24T10:55:46;1.63;;;1.53;;
19800;SDS011;10060;48.274;12.214;2023-04-24T10:58:49;1.73;;;1.63;;
19800;SDS011;10060;48.274;12.214;2023-04-24T11:01:54;3.43;;;1.87;;
19800;SDS011;10060;48.274;12.214;2023-04-24T11:04:56;2.50;;;1.87;;
19800;SDS011;10060;48.274;12.214;2023-04-24T11:08:11;3.93;;;2.03;;
19800;SDS011;10060;48.274;12.214;2023-04-24T11:11:14;2.37;;;1.70;;
19800;SDS011;10060;48.274;12.214;2023-04-24T11:14:16;5.53;;;2.00;;
19800;SDS011;10060;48.274;12.214;2023-04-24T11:17:28;1.97;;;1.70;;
19800;SDS011;10060;48.274;12.214;2023-04-24T11:20:30;2.00;;;1.80;;
19800;SDS011;10060;48.274;12.214;2023-04-24T11:23:35;2.10;;;1.90;;
19800;SDS011;10060;48.274;12.214;2023-04-24T11:26:38;1.77;;;1.67;;
19800;SDS011;10060;48.274;12.214;2023-04-24T11:29:43;1.93;;;1.80;;
19800;SDS011;10060;48.274;12.214;2023-04-24T11:32:48;2.20;;;1.70;;
19800;SDS011;10060;48.274;12.214;2023-04-24T11:35:52;1.83;;;1.70;;
19800;SDS011;10060;48.274;12.214;2023-04-24T11:38:54;3.43;;;2.00;;
19800;SDS011;10060;48.274;12.214;2023-04-24T11:42:01;1.90;;;1.60;;
19800;SDS011;10060;48.274;12.214;2023-04-24T11:45:07;2.07;;;1.70;;
19800;SDS011;10060;48.274;12.214;2023-04-24T11:48:10;2.60;;;1.60;;
19800;SDS011;10060;48.274;12.214;2023-04-24T11:51:13;4.40;;;1.60;;
19800;SDS011;10060;48.274;12.214;2023-04-24T11:54:15;3.50;;;1.60;;
19800;SDS011;10060;48.274;12.214;2023-04-24T11:57:19;1.97;;;1.40;;
19800;SDS011;10060;48.274;12.214;2023-04-24T12:00:23;1.77;;;1.27;;
19800;SDS011;10060;48.274;12.214;2023-04-24T12:03:26;1.10;;;1.10;;
19800;SDS011;10060;48.274;12.214;2023-04-24T12:06:28;1.47;;;1.23;;
19800;SDS011;10060;48.274;12.214;2023-04-24T12:09:40;1.33;;;1.23;;
19800;SDS011;10060;48.274;12.214;2023-04-24T12:12:42;2.40;;;1.50;;
19800;SDS011;10060;48.274;12.214;2023-04-24T12:15:47;1.60;;;1.50;;
19800;SDS011;10060;48.274;12.214;2023-04-24T12:18:53;1.37;;;1.27;;
19800;SDS011;10060;48.274;12.214;2023-04-24T12:21:59;1.70;;;1.60;;
19800;SDS011;10060;48.274;12.214;2023-04-24T12:25:02;2.30;;;1.53;;
19800;SDS011;10060;48.274;12.214;2023-04-24T12:28:08;1.30;;;1.20;;
19800;SDS011;10060;48.274;12.214;2023-04-24T12:31:11;2.60;;;1.43;;
19800;SDS011;10060;48.274;12.214;2023-04-24T12:34:18;1.53;;;1.43;;
19800;SDS011;10060;48.274;12.214;2023-04-24T12:37:22;1.43;;;1.33;;
19800;SDS011;10060;48.274;12.214;2023-04-24T12:40:25;1.63;;;1.50;;
19800;SDS011;10060;48.274;12.214;2023-04-24T12:43:28;2.50;;;1.40;;
19800;SDS011;10060;48.274;12.214;2023-04-24T12:46:31;4.03;;;1.87;;
19800;SDS011;10060;48.274;12.214;2023-04-24T12:49:34;1.73;;;1.50;;
19800;SDS011;10060;48.274;12.214;2023-04-24T12:52:36;1.80;;;1.70;;
19800;SDS011;10060;48.274;12.214;2023-04-24T12:55:39;1.70;;;1.60;;
19800;SDS011;10060;48.274;12.214;2023-04-24T12:58:41;4.17;;;1.80;;
19800;SDS011;10060;48.274;12.214;2023-04-24T13:01:43;2.30;;;2.10;;
19800;SDS011;10060;48.274;12.214;2023-04-24T13:04:46;1.80;;;1.70;;
19800;SDS011;10060;48.274;12.214;2023-04-24T13:07:49;2.50;;;2.00;;
19800;SDS011;10060;48.274;12.214;2023-04-24T13:10:51;4.27;;;2.00;;
19800;SDS011;10060;48.274;12.214;2023-04-24T13:13:54;2.40;;;1.87;;
19800;SDS011;10060;48.274;12.214;2023-04-24T13:16:56;2.70;;;1.97;;
19800;SDS011;10060;48.274;12.214;2023-04-24T13:19:59;1.63;;;1.50;;
19800;SDS011;10060;48.274;12.214;2023-04-24T13:23:01;3.83;;;1.67;;
19800;SDS011;10060;48.274;12.214;2023-04-24T13:26:03;2.80;;;1.80;;
19800;SDS011;10060;48.274;12.214;2023-04-24T13:29:06;2.77;;;1.67;;
19800;SDS011;10060;48.274;12.214;2023-04-24T13:32:08;1.60;;;1.50;;
19800;SDS011;10060;48.274;12.214;2023-04-24T13:35:11;3.03;;;1.70;;
19800;SDS011;10060;48.274;12.214;2023-04-24T13:38:14;2.70;;;1.77;;
19800;SDS011;10060;48.274;12.214;2023-04-24T13:41:16;1.63;;;1.53;;
19800;SDS011;10060;48.274;12.214;2023-04-24T13:44:18;2.33;;;1.70;;
19800;SDS011;10060;48.274;12.214;2023-04-24T13:47:20;2.07;;;1.60;;
19800;SDS011;10060;48.274;12.214;2023-04-24T13:50:24;2.33;;;1.50;;
19800;SDS011;10060;48.274;12.214;2023-04-24T13:53:26;1.80;;;1.70;;
19800;SDS011;10060;48.274;12.214;2023-04-24T13:56:28;1.80;;;1.70;;
19800;SDS011;10060;48.274;12.214;2023-04-24T13:59:30;3.00;;;2.70;;
19800;SDS011;10060;48.274;12.214;2023-04-24T14:02:32;4.00;;;3.60;;
19800;SDS011;10060;48.274;12.214;2023-04-24T14:05:36;4.27;;;1.70;;
19800;SDS011;10060;48.274;12.214;2023-04-24T14:08:38;2.87;;;1.47;;
19800;SDS011;10060;48.274;12.214;2023-04-24T14:11:40;2.33;;;1.60;;
19800;SDS011;10060;48.274;12.214;2023-04-24T14:14:42;2.30;;;1.47;;
19800;SDS011;10060;48.274;12.214;2023-04-24T14:17:44;4.57;;;1.50;;
19800;SDS011;10060;48.274;12.214;2023-04-24T14:20:47;1.43;;;1.33;;
19800;SDS011;10060;48.274;12.214;2023-04-24T14:23:49;2.00;;;1.40;;
19800;SDS011;10060;48.274;12.214;2023-04-24T14:26:52;1.70;;;1.40;;
19800;SDS011;10060;48.274;12.214;2023-04-24T14:29:54;2.00;;;1.57;;
19800;SDS011;10060;48.274;12.214;2023-04-24T14:32:56;1.47;;;1.37;;
19800;SDS011;10060;48.274;12.214;2023-04-24T14:35:59;1.57;;;1.47;;
19800;SDS011;10060;48.274;12.214;2023-04-24T14:39:02;1.63;;;1.43;;
19800;SDS011;10060;48.274;12.214;2023-04-24T14:42:06;1.70;;;1.40;;
19800;SDS011;10060;48.274;12.214;2023-04-24T14:45:09;1.50;;;1.40;;
19800;SDS011;10060;48.274;12.214;2023-04-24T14:48:11;2.47;;;1.60;;
19800;SDS011;10060;48.274;12.214;2023-04-24T14:51:14;2.37;;;1.57;;
19800;SDS011;10060;48.274;12.214;2023-04-24T14:54:17;2.30;;;1.60;;
19800;SDS011;10060;48.274;12.214;2023-04-24T14:57:19;2.20;;;1.70;;
19800;SDS011;10060;48.274;12.214;2023-04-24T15:00:21;1.97;;;1.60;;
19800;SDS011;10060;48.274;12.214;2023-04-24T15:03:24;1.70;;;1.60;;
19800;SDS011;10060;48.274;12.214;2023-04-24T15:06:29;2.37;;;1.43;;
19800;SDS011;10060;48.274;12.214;2023-04-24T15:09:32;3.43;;;2.20;;
19800;SDS011;10060;48.274;12.214;2023-04-24T15:12:34;2.90;;;2.60;;
19800;SDS011;10060;48.274;12.214;2023-04-24T15:15:37;2.37;;;2.17;;
19800;SDS011;10060;48.274;12.214;2023-04-24T15:18:39;5.70;;;2.20;;
19800;SDS011;10060;48.274;12.214;2023-04-24T15:21:42;3.47;;;2.30;;
19800;SDS011;10060;48.274;12.214;2023-04-24T15:24:44;3.40;;;2.10;;
19800;SDS011;10060;48.274;12.214;2023-04-24T15:27:46;2.27;;;1.60;;
19800;SDS011;10060;48.274;12.214;2023-04-24T15:30:49;9.43;;;2.30;;
19800;SDS011;10060;48.274;12.214;2023-04-24T15:33:51;2.80;;;1.83;;
19800;SDS011;10060;48.274;12.214;2023-04-24T15:36:54;1.83;;;1.50;;
19800;SDS011;10060;48.274;12.214;2023-04-24T15:39:56;3.10;;;1.70;;
19800;SDS011;10060;48.274;12.214;2023-04-24T15:42:59;2.33;;;1.77;;
19800;SDS011;10060;48.274;12.214;2023-04-24T15:46:01;3.40;;;1.80;;
19800;SDS011;10060;48.274;12.214;2023-04-24T15:49:03;4.00;;;1.53;;
19800;SDS011;10060;48.274;12.214;2023-04-24T15:52:07;3.10;;;1.50;;
19800;SDS011;10060;48.274;12.214;2023-04-24T15:55:10;1.93;;;1.40;;
19800;SDS011;10060;48.274;12.214;2023-04-24T15:58:12;1.70;;;1.20;;
19800;SDS011;10060;48.274;12.214;2023-04-24T16:01:14;1.50;;;1.40;;
19800;SDS011;10060;48.274;12.214;2023-04-24T16:04:16;4.03;;;1.50;;
19800;SDS011;10060;48.274;12.214;2023-04-24T16:07:19;1.70;;;1.57;;
19800;SDS011;10060;48.274;12.214;2023-04-24T16:10:22;2.33;;;2.00;;
19800;SDS011;10060;48.274;12.214;2023-04-24T16:13:24;2.73;;;1.43;;
19800;SDS011;10060;48.274;12.214;2023-04-24T16:16:28;1.47;;;1.37;;
19800;SDS011;10060;48.274;12.214;2023-04-24T16:19:30;2.87;;;1.90;;
19800;SDS011;10060;48.274;12.214;2023-04-24T16:22:34;1.77;;;1.43;;
19800;SDS011;10060;48.274;12.214;2023-04-24T16:25:36;3.17;;;2.60;;
19800;SDS011;10060;48.274;12.214;2023-04-24T16:28:38;2.77;;;1.50;;
19800;SDS011;10060;48.274;12.214;2023-04-24T16:31:42;1.37;;;1.20;;
19800;SDS011;10060;48.274;12.214;2023-04-24T16:34:44;1.50;;;1.40;;
19800;SDS011;10060;48.274;12.214;2023-04-24T16:37:47;4.23;;;2.60;;
19800;SDS011;10060;48.274;12.214;2023-04-24T16:40:49;3.10;;;1.80;;
19800;SDS011;10060;48.274;12.214;2023-04-24T16:43:52;4.87;;;2.13;;
19800;SDS011;10060;48.274;12.214;2023-04-24T16:46:54;2.40;;;2.03;;
19800;SDS011;10060;48.274;12.214;2023-04-24T16:49:56;2.00;;;1.60;;
19800;SDS011;10060;48.274;12.214;2023-04-24T16:53:00;2.63;;;1.70;;
19800;SDS011;10060;48.274;12.214;2023-04-24T16:56:02;4.40;;;2.40;;
19800;SDS011;10060;48.274;12.214;2023-04-24T16:59:04;1.93;;;1.50;;
19800;SDS011;10060;48.274;12.214;2023-04-24T17:02:07;1.60;;;1.50;;
19800;SDS011;10060;48.274;12.214;2023-04-24T17:05:09;2.60;;;1.60;;
19800;SDS011;10060;48.274;12.214;2023-04-24T17:08:13;1.40;;;1.30;;
19800;SDS011;10060;48.274;12.214;2023-04-24T17:11:15;1.97;;;1.40;;
19800;SDS011;10060;48.274;12.214;2023-04-24T17:14:17;3.57;;;2.10;;
19800;SDS011;10060;48.274;12.214;2023-04-24T17:17:22;3.60;;;1.90;;
19800;SDS011;10060;48.274;12.214;2023-04-24T17:20:24;1.50;;;1.40;;
19800;SDS011;10060;48.274;12.214;2023-04-24T17:23:27;1.73;;;1.40;;
19800;SDS011;10060;48.274;12.214;2023-04-24T17:26:30;2.50;;;2.30;;
19800;SDS011;10060;48.274;12.214;2023-04-24T17:29:32;2.87;;;2.30;;
19800;SDS011;10060;48.274;12.214;2023-04-24T17:32:34;1.57;;;1.47;;
19800;SDS011;10060;48.274;12.214;2023-04-24T17:35:36;1.60;;;1.50;;
19800;SDS011;10060;48.274;12.214;2023-04-24T17:38:40;1.60;;;1.37;;
19800;SDS011;10060;48.274;12.214;2023-04-24T17:41:42;1.30;;;1.20;;
19800;SDS011;10060;48.274;12.214;2023-04-24T17:44:44;1.20;;;1.10;;
19800;SDS011;10060;48.274;12.214;2023-04-24T17:47:46;1.77;;;1.20;;
19800;SDS011;10060;48.274;12.214;2023-04-24T17:50:48;1.63;;;1.27;;
19800;SDS011;10060;48.274;12.214;2023-04-24T17:53:52;1.63;;;1.30;;
19800;SDS011;10060;48.274;12.214;2023-04-24T17:56:54;1.50;;;1.40;;
19800;SDS011;10060;48.274;12.214;2023-04-24T17:59:56;1.20;;;1.20;;
19800;SDS011;10060;48.274;12.214;2023-04-24T18:02:58;2.60;;;1.50;;